Hereford, Maryland
Current Conditions -  °F | °C
As of 2:54 PM on Thursday 23 Oct 2014 (Local Time) from KMTN Reporting Station
Broken Clouds Broken Clouds  
Wind Chill: 63°   Ceiling: 4100
Heat Index: 63°   Visibility: 10mi
Dew Point: 48°   Wind: 20mph
Humidity: 59%   Direction: 310°NW
Pressure: 29.82"   Gusts: 25mph
Location:  39.5784°N, 76.5798°W
Report Text: KMTN 231854Z 31017G22KT 10SM BKN041 17/09 A2982
Loading
Personal Weather Stations






























Interactive Weather Map New forecast layout! Learn more

10-Day Weather Forecast

Advertisements
Track Severe Weather on mobile